sensor_id;sensor_type;location;lat;lon;timestamp;pressure;altitude;pressure_sealevel;temperature;humidity
60099;BME280;62818;49.394;8.686;2022-11-15T00:00:54;100104.00;;;10.67;100.00
60099;BME280;62818;49.394;8.686;2022-11-15T00:01:56;100100.59;;;10.58;100.00
60099;BME280;62818;49.394;8.686;2022-11-15T00:02:57;100089.91;;;10.52;100.00
60099;BME280;62818;49.394;8.686;2022-11-15T00:04:00;100096.59;;;10.48;100.00
60099;BME280;62818;49.394;8.686;2022-11-15T00:05:03;100099.22;;;10.48;100.00
60099;BME280;62818;49.394;8.686;2022-11-15T00:06:08;100095.78;;;10.62;100.00
60099;BME280;62818;49.394;8.686;2022-11-15T00:07:16;100098.44;;;10.62;100.00
60099;BME280;62818;49.394;8.686;2022-11-15T00:08:22;100104.72;;;10.61;100.00
60099;BME280;62818;49.394;8.686;2022-11-15T00:09:24;100087.72;;;10.70;100.00
60099;BME280;62818;49.394;8.686;2022-11-15T00:10:25;100087.16;;;10.60;100.00
60099;BME280;62818;49.394;8.686;2022-11-15T00:11:26;100085.44;;;10.52;100.00
60099;BME280;62818;49.394;8.686;2022-11-15T00:12:32;100092.56;;;10.52;100.00
60099;BME280;62818;49.394;8.686;2022-11-15T00:13:35;100091.84;;;10.72;99.21
60099;BME280;62818;49.394;8.686;2022-11-15T00:14:35;100091.28;;;10.77;98.97
60099;BME280;62818;49.394;8.686;2022-11-15T00:15:40;100090.03;;;10.73;99.50
60099;BME280;62818;49.394;8.686;2022-11-15T00:16:41;100080.41;;;10.72;99.79
60099;BME280;62818;49.394;8.686;2022-11-15T00:17:41;100080.31;;;10.80;99.45
60099;BME280;62818;49.394;8.686;2022-11-15T00:18:46;100077.03;;;10.78;99.45
60099;BME280;62818;49.394;8.686;2022-11-15T00:19:46;100076.56;;;10.60;100.00
60099;BME280;62818;49.394;8.686;2022-11-15T00:20:47;100076.22;;;10.63;100.00
60099;BME280;62818;49.394;8.686;2022-11-15T00:21:47;100081.69;;;10.76;100.00
60099;BME280;62818;49.394;8.686;2022-11-15T00:22:48;100081.69;;;10.76;99.81
60099;BME280;62818;49.394;8.686;2022-11-15T00:23:54;100071.47;;;10.73;100.00
60099;BME280;62818;49.394;8.686;2022-11-15T00:24:57;100080.41;;;10.72;100.00
60099;BME280;62818;49.394;8.686;2022-11-15T00:25:58;100079.13;;;10.68;100.00
60099;BME280;62818;49.394;8.686;2022-11-15T00:27:01;100074.66;;;10.68;100.00
60099;BME280;62818;49.394;8.686;2022-11-15T00:28:01;100081.78;;;10.82;100.00
60099;BME280;62818;49.394;8.686;2022-11-15T00:29:02;100077.22;;;10.76;100.00
60099;BME280;62818;49.394;8.686;2022-11-15T00:30:03;100080.59;;;10.85;100.00
60099;BME280;62818;49.394;8.686;2022-11-15T00:31:14;100085.72;;;10.72;100.00
60099;BME280;62818;49.394;8.686;2022-11-15T00:32:19;100079.13;;;10.68;100.00
60099;BME280;62818;49.394;8.686;2022-11-15T00:33:19;100071.47;;;10.73;100.00
60099;BME280;62818;49.394;8.686;2022-11-15T00:34:20;100074.91;;;10.73;100.00
60099;BME280;62818;49.394;8.686;2022-11-15T00:35:20;100071.47;;;10.73;100.00
60099;BME280;62818;49.394;8.686;2022-11-15T00:36:21;100076.84;;;10.79;100.00
60099;BME280;62818;49.394;8.686;2022-11-15T00:37:24;100078.75;;;10.85;100.00
60099;BME280;62818;49.394;8.686;2022-11-15T00:38:24;100085.06;;;10.70;99.97
60099;BME280;62818;49.394;8.686;2022-11-15T00:39:32;100078.75;;;10.71;100.00
60099;BME280;62818;49.394;8.686;2022-11-15T00:40:35;100067.63;;;10.61;100.00
60099;BME280;62818;49.394;8.686;2022-11-15T00:41:37;100069.09;;;10.49;100.00
60099;BME280;62818;49.394;8.686;2022-11-15T00:42:40;100074.09;;;10.58;100.00
60099;BME280;62818;49.394;8.686;2022-11-15T00:43:41;100071.81;;;10.70;99.79
60099;BME280;62818;49.394;8.686;2022-11-15T00:44:45;100065.16;;;10.74;99.94
60099;BME280;62818;49.394;8.686;2022-11-15T00:45:53;100060.41;;;10.55;100.00
60099;BME280;62818;49.394;8.686;2022-11-15T00:46:59;100057.84;;;10.61;100.00
60099;BME280;62818;49.394;8.686;2022-11-15T00:47:59;100064.16;;;10.75;97.56
60099;BME280;62818;49.394;8.686;2022-11-15T00:49:02;100076.13;;;10.85;96.52
60099;BME280;62818;49.394;8.686;2022-11-15T00:50:07;100071.16;;;10.82;97.79
60099;BME280;62818;49.394;8.686;2022-11-15T00:51:08;100067.06;;;10.80;98.14
60099;BME280;62818;49.394;8.686;2022-11-15T00:52:08;100066.53;;;10.70;98.76
60099;BME280;62818;49.394;8.686;2022-11-15T00:53:16;100063.59;;;10.79;98.75
60099;BME280;62818;49.394;8.686;2022-11-15T00:54:19;100063.41;;;10.81;98.46
60099;BME280;62818;49.394;8.686;2022-11-15T00:55:20;100070.53;;;10.80;98.30
60099;BME280;62818;49.394;8.686;2022-11-15T00:56:22;100062.50;;;10.74;97.57
60099;BME280;62818;49.394;8.686;2022-11-15T00:57:25;100064.88;;;10.69;97.21
60099;BME280;62818;49.394;8.686;2022-11-15T00:58:31;100060.66;;;10.60;98.68
60099;BME280;62818;49.394;8.686;2022-11-15T00:59:34;100053.38;;;10.62;98.80
60099;BME280;62818;49.394;8.686;2022-11-15T01:00:37;100059.78;;;10.53;99.13
60099;BME280;62818;49.394;8.686;2022-11-15T01:01:38;100056.19;;;10.60;99.67
60099;BME280;62818;49.394;8.686;2022-11-15T01:02:40;100052.00;;;10.66;98.44
60099;BME280;62818;49.394;8.686;2022-11-15T01:03:41;100053.91;;;10.72;98.13
60099;BME280;62818;49.394;8.686;2022-11-15T01:04:44;100052.63;;;10.68;97.90
60099;BME280;62818;49.394;8.686;2022-11-15T01:05:49;100046.41;;;10.61;98.21
60099;BME280;62818;49.394;8.686;2022-11-15T01:06:50;100057.09;;;10.67;96.95
60099;BME280;62818;49.394;8.686;2022-11-15T01:07:54;100060.47;;;10.76;96.24
60099;BME280;62818;49.394;8.686;2022-11-15T01:09:00;100051.53;;;10.77;96.06
60099;BME280;62818;49.394;8.686;2022-11-15T01:10:01;100046.31;;;10.54;97.47
60099;BME280;62818;49.394;8.686;2022-11-15T01:11:08;100046.34;;;10.39;99.48
60099;BME280;62818;49.394;8.686;2022-11-15T01:12:12;100035.53;;;10.56;98.41
60099;BME280;62818;49.394;8.686;2022-11-15T01:13:15;100044.59;;;10.47;98.84
60099;BME280;62818;49.394;8.686;2022-11-15T01:14:17;100042.84;;;10.39;98.91
60099;BME280;62818;49.394;8.686;2022-11-15T01:15:20;100045.78;;;10.59;98.74
60099;BME280;62818;49.394;8.686;2022-11-15T01:16:23;100048.06;;;10.62;96.67
60099;BME280;62818;49.394;8.686;2022-11-15T01:17:27;100043.22;;;10.65;95.87
60099;BME280;62818;49.394;8.686;2022-11-15T01:18:27;100043.66;;;10.69;96.02
60099;BME280;62818;49.394;8.686;2022-11-15T01:19:28;100049.25;;;10.74;95.71
60099;BME280;62818;49.394;8.686;2022-11-15T01:20:30;100041.13;;;10.61;96.77
60099;BME280;62818;49.394;8.686;2022-11-15T01:21:31;100039.84;;;10.57;97.24
60099;BME280;62818;49.394;8.686;2022-11-15T01:22:34;100039.47;;;10.60;96.85
60099;BME280;62818;49.394;8.686;2022-11-15T01:23:41;100047.53;;;10.66;96.16
60099;BME280;62818;49.394;8.686;2022-11-15T01:24:51;100043.31;;;10.72;95.49
60099;BME280;62818;49.394;8.686;2022-11-15T01:26:00;100048.97;;;10.69;95.03
60099;BME280;62818;49.394;8.686;2022-11-15T01:27:04;100048.16;;;10.68;94.92
60099;BME280;62818;49.394;8.686;2022-11-15T01:28:07;100045.03;;;10.65;95.85
60099;BME280;62818;49.394;8.686;2022-11-15T01:29:08;100043.41;;;10.64;95.81
60099;BME280;62818;49.394;8.686;2022-11-15T01:30:10;100046.16;;;10.70;94.51
60099;BME280;62818;49.394;8.686;2022-11-15T01:31:16;100041.28;;;10.74;94.84
60099;BME280;62818;49.394;8.686;2022-11-15T01:32:18;100035.47;;;10.64;95.52
60099;BME280;62818;49.394;8.686;2022-11-15T01:33:23;100038.63;;;10.74;94.93
60099;BME280;62818;49.394;8.686;2022-11-15T01:34:28;100042.22;;;10.66;95.69
60099;BME280;62818;49.394;8.686;2022-11-15T01:35:31;100037.47;;;10.62;95.61
60099;BME280;62818;49.394;8.686;2022-11-15T01:36:31;100035.06;;;10.67;96.22
60099;BME280;62818;49.394;8.686;2022-11-15T01:37:32;100040.75;;;10.64;96.61
60099;BME280;62818;49.394;8.686;2022-11-15T01:38:33;100030.25;;;10.41;96.93
60099;BME280;62818;49.394;8.686;2022-11-15T01:39:38;100029.53;;;10.32;98.10
60099;BME280;62818;49.394;8.686;2022-11-15T01:40:41;100027.22;;;10.29;98.51
60099;BME280;62818;49.394;8.686;2022-11-15T01:41:41;100023.38;;;10.47;97.54
60099;BME280;62818;49.394;8.686;2022-11-15T01:42:41;100025.97;;;10.55;95.44
60099;BME280;62818;49.394;8.686;2022-11-15T01:43:47;100023.75;;;10.73;93.66
60099;BME280;62818;49.394;8.686;2022-11-15T01:44:52;100030.69;;;10.74;93.05
60099;BME280;62818;49.394;8.686;2022-11-15T01:47:36;100025.38;;;10.74;93.05
60099;BME280;62818;49.394;8.686;2022-11-15T01:48:40;100021.75;;;10.75;93.01
60099;BME280;62818;49.394;8.686;2022-11-15T01:49:59;100018.44;;;10.73;92.98
60099;BME280;62818;49.394;8.686;2022-11-15T01:51:09;100025.66;;;10.64;93.63
60099;BME280;62818;49.394;8.686;2022-11-15T01:52:23;100022.22;;;10.64;93.71
60099;BME280;62818;49.394;8.686;2022-11-15T01:53:29;100028.59;;;10.69;93.25
60099;BME280;62818;49.394;8.686;2022-11-15T01:54:32;100025.28;;;10.67;93.41
60099;BME280;62818;49.394;8.686;2022-11-15T01:55:33;100011.84;;;10.69;93.50
60099;BME280;62818;49.394;8.686;2022-11-15T01:56:40;100031.44;;;10.68;93.28
60099;BME280;62818;49.394;8.686;2022-11-15T01:57:57;100026.88;;;10.62;93.66
60099;BME280;62818;49.394;8.686;2022-11-15T01:59:04;100021.22;;;10.50;94.87
60099;BME280;62818;49.394;8.686;2022-11-15T02:00:11;100016.63;;;10.59;95.28
60099;BME280;62818;49.394;8.686;2022-11-15T02:01:12;100014.63;;;10.61;95.10
60099;BME280;62818;49.394;8.686;2022-11-15T02:02:15;100022.84;;;10.51;94.63
60099;BME280;62818;49.394;8.686;2022-11-15T02:03:18;100017.63;;;10.43;95.79
60099;BME280;62818;49.394;8.686;2022-11-15T02:04:26;100008.78;;;10.21;96.87
60099;BME280;62818;49.394;8.686;2022-11-15T02:05:31;100009.03;;;10.12;98.27
60099;BME280;62818;49.394;8.686;2022-11-15T02:06:37;100010.19;;;10.09;99.28
60099;BME280;62818;49.394;8.686;2022-11-15T02:07:42;100001.47;;;10.23;99.09
60099;BME280;62818;49.394;8.686;2022-11-15T02:08:44;100005.41;;;10.13;99.02
60099;BME280;62818;49.394;8.686;2022-11-15T02:09:45;100003.25;;;10.08;99.46
60099;BME280;62818;49.394;8.686;2022-11-15T02:10:49;100003.69;;;10.20;98.70
60099;BME280;62818;49.394;8.686;2022-11-15T02:11:54;100001.47;;;10.23;98.83
60099;BME280;62818;49.394;8.686;2022-11-15T02:12:56;100007.06;;;10.28;98.12
60099;BME280;62818;49.394;8.686;2022-11-15T02:14:03;100004.22;;;10.15;98.39
60099;BME280;62818;49.394;8.686;2022-11-15T02:15:08;100004.25;;;10.07;99.12
60099;BME280;62818;49.394;8.686;2022-11-15T02:16:25;100003.41;;;9.92;100.00
60099;BME280;62818;49.394;8.686;2022-11-15T02:21:22;99996.31;;;10.07;99.85
60099;BME280;62818;49.394;8.686;2022-11-15T02:27:11;99989.97;;;9.79;100.00
60099;BME280;62818;49.394;8.686;2022-11-15T02:28:50;99987.69;;;9.76;100.00
60099;BME280;62818;49.394;8.686;2022-11-15T02:34:08;99977.97;;;9.91;100.00
60099;BME280;62818;49.394;8.686;2022-11-15T02:35:37;99969.44;;;9.96;100.00
60099;BME280;62818;49.394;8.686;2022-11-15T02:37:10;99972.22;;;10.02;100.00
60099;BME280;62818;49.394;8.686;2022-11-15T02:41:09;99958.03;;;9.81;100.00
60099;BME280;62818;49.394;8.686;2022-11-15T02:42:21;99955.75;;;9.92;100.00
60099;BME280;62818;49.394;8.686;2022-11-15T02:43:53;99954.88;;;10.00;100.00
60099;BME280;62818;49.394;8.686;2022-11-15T02:45:04;99951.25;;;9.78;100.00
60099;BME280;62818;49.394;8.686;2022-11-15T02:46:38;99941.88;;;9.90;100.00
60099;BME280;62818;49.394;8.686;2022-11-15T02:48:10;99946.16;;;9.77;100.00
60099;BME280;62818;49.394;8.686;2022-11-15T02:49:12;99946.72;;;9.87;100.00
60099;BME280;62818;49.394;8.686;2022-11-15T02:50:23;99946.53;;;9.88;100.00
60099;BME280;62818;49.394;8.686;2022-11-15T02:51:32;99958.69;;;9.97;100.00
60099;BME280;62818;49.394;8.686;2022-11-15T02:52:33;99946.53;;;9.88;100.00
60099;BME280;62818;49.394;8.686;2022-11-15T02:53:36;99948.47;;;9.94;100.00
60099;BME280;62818;49.394;8.686;2022-11-15T02:54:36;99949.09;;;9.96;100.00
60099;BME280;62818;49.394;8.686;2022-11-15T02:55:40;99947.00;;;9.92;100.00
60099;BME280;62818;49.394;8.686;2022-11-15T02:56:45;99945.72;;;9.73;100.00
60099;BME280;62818;49.394;8.686;2022-11-15T02:57:52;99938.13;;;9.70;100.00
60099;BME280;62818;49.394;8.686;2022-11-15T03:00:19;99941.34;;;9.80;100.00
60099;BME280;62818;49.394;8.686;2022-11-15T03:02:57;99942.22;;;9.87;100.00
60099;BME280;62818;49.394;8.686;2022-11-15T03:06:03;99937.31;;;9.84;100.00
60099;BME280;62818;49.394;8.686;2022-11-15T03:09:13;99931.84;;;10.00;100.00
60099;BME280;62818;49.394;8.686;2022-11-15T03:11:09;99929.53;;;9.68;100.00
60099;BME280;62818;49.394;8.686;2022-11-15T03:12:38;99927.81;;;9.75;100.00
60099;BME280;62818;49.394;8.686;2022-11-15T03:13:58;99932.94;;;9.91;100.00
60099;BME280;62818;49.394;8.686;2022-11-15T03:17:11;99936.31;;;9.85;100.00
60099;BME280;62818;49.394;8.686;2022-11-15T03:18:28;99938.59;;;9.88;100.00
60099;BME280;62818;49.394;8.686;2022-11-15T03:19:52;99930.94;;;9.93;100.00
60099;BME280;62818;49.394;8.686;2022-11-15T03:20:58;99928.94;;;9.95;100.00
60099;BME280;62818;49.394;8.686;2022-11-15T03:22:04;99928.47;;;9.92;100.00
60099;BME280;62818;49.394;8.686;2022-11-15T03:23:13;99930.47;;;9.90;100.00
60099;BME280;62818;49.394;8.686;2022-11-15T03:24:19;99927.19;;;9.88;100.00
60099;BME280;62818;49.394;8.686;2022-11-15T03:25:24;99924.09;;;9.84;100.00
60099;BME280;62818;49.394;8.686;2022-11-15T03:26:28;99928.66;;;9.90;100.00
60099;BME280;62818;49.394;8.686;2022-11-15T03:27:34;99922.63;;;9.96;100.00
60099;BME280;62818;49.394;8.686;2022-11-15T03:29:54;99925.66;;;9.93;100.00
60099;BME280;62818;49.394;8.686;2022-11-15T03:31:02;99932.75;;;10.07;100.00
60099;BME280;62818;49.394;8.686;2022-11-15T03:32:32;99921.72;;;10.04;100.00
60099;BME280;62818;49.394;8.686;2022-11-15T03:33:38;99929.84;;;10.02;100.00
60099;BME280;62818;49.394;8.686;2022-11-15T03:34:41;99928.63;;;10.05;100.00
60099;BME280;62818;49.394;8.686;2022-11-15T03:35:52;99932.41;;;10.10;100.00
60099;BME280;62818;49.394;8.686;2022-11-15T03:36:58;99935.50;;;9.99;100.00
60099;BME280;62818;49.394;8.686;2022-11-15T03:39:25;99935.78;;;10.04;100.00
60099;BME280;62818;49.394;8.686;2022-11-15T03:40:36;99930.06;;;10.15;100.00
60099;BME280;62818;49.394;8.686;2022-11-15T03:41:46;99931.69;;;10.16;100.00
60099;BME280;62818;49.394;8.686;2022-11-15T03:43:19;99925.66;;;10.22;100.00
60099;BME280;62818;49.394;8.686;2022-11-15T03:44:34;99933.50;;;10.30;100.00
60099;BME280;62818;49.394;8.686;2022-11-15T03:46:02;99925.19;;;10.33;100.00
60099;BME280;62818;49.394;8.686;2022-11-15T03:48:26;99921.94;;;10.17;100.00
60099;BME280;62818;49.394;8.686;2022-11-15T03:49:36;99914.06;;;10.23;100.00
60099;BME280;62818;49.394;8.686;2022-11-15T03:50:42;99921.81;;;10.25;100.00
60099;BME280;62818;49.394;8.686;2022-11-15T03:51:46;99916.72;;;10.23;100.00
60099;BME280;62818;49.394;8.686;2022-11-15T03:52:49;99922.38;;;10.20;100.00
60099;BME280;62818;49.394;8.686;2022-11-15T03:53:51;99916.53;;;10.25;100.00
60099;BME280;62818;49.394;8.686;2022-11-15T03:54:56;99923.09;;;10.14;100.00
60099;BME280;62818;49.394;8.686;2022-11-15T03:56:02;99915.97;;;10.29;100.00
60099;BME280;62818;49.394;8.686;2022-11-15T03:57:03;99924.28;;;10.41;100.00
60099;BME280;62818;49.394;8.686;2022-11-15T03:58:03;99923.25;;;10.42;100.00
60099;BME280;62818;49.394;8.686;2022-11-15T03:59:06;99925.72;;;10.43;100.00
60099;BME280;62818;49.394;8.686;2022-11-15T04:00:10;99930.28;;;10.50;100.00
60099;BME280;62818;49.394;8.686;2022-11-15T04:01:11;99930.28;;;10.50;100.00
60099;BME280;62818;49.394;8.686;2022-11-15T04:02:12;99926.00;;;10.49;100.00
60099;BME280;62818;49.394;8.686;2022-11-15T04:03:14;99931.19;;;10.42;100.00
60099;BME280;62818;49.394;8.686;2022-11-15T04:04:17;99923.91;;;10.44;100.00
60099;BME280;62818;49.394;8.686;2022-11-15T04:05:20;99925.19;;;10.48;100.00
60099;BME280;62818;49.394;8.686;2022-11-15T04:06:21;99919.81;;;10.41;100.00
60099;BME280;62818;49.394;8.686;2022-11-15T04:07:23;99927.13;;;10.39;100.00
60099;BME280;62818;49.394;8.686;2022-11-15T04:08:26;99932.41;;;10.39;100.00
60099;BME280;62818;49.394;8.686;2022-11-15T04:09:26;99920.44;;;10.29;100.00
60099;BME280;62818;49.394;8.686;2022-11-15T04:10:27;99928.09;;;10.38;100.00
60099;BME280;62818;49.394;8.686;2022-11-15T04:11:32;99929.22;;;10.44;100.00
60099;BME280;62818;49.394;8.686;2022-11-15T04:12:34;99923.44;;;10.40;100.00
60099;BME280;62818;49.394;8.686;2022-11-15T04:13:38;99932.66;;;10.44;100.00
60099;BME280;62818;49.394;8.686;2022-11-15T04:14:39;99934.97;;;10.33;100.00
60099;BME280;62818;49.394;8.686;2022-11-15T04:16:02;99933.13;;;10.33;100.00
60099;BME280;62818;49.394;8.686;2022-11-15T04:17:02;99929.97;;;10.23;100.00
60099;BME280;62818;49.394;8.686;2022-11-15T04:18:03;99938.25;;;10.20;100.00
60099;BME280;62818;49.394;8.686;2022-11-15T04:19:03;99932.97;;;10.20;100.00
60099;BME280;62818;49.394;8.686;2022-11-15T04:20:24;99936.97;;;10.16;100.00
60099;BME280;62818;49.394;8.686;2022-11-15T04:21:58;99928.22;;;10.30;100.00
60099;BME280;62818;49.394;8.686;2022-11-15T04:23:23;99925.72;;;10.29;100.00
60099;BME280;62818;49.394;8.686;2022-11-15T04:24:45;99923.34;;;10.34;100.00
60099;BME280;62818;49.394;8.686;2022-11-15T04:25:51;99921.53;;;10.34;100.00
60099;BME280;62818;49.394;8.686;2022-11-15T04:26:53;99918.72;;;10.21;100.00
60099;BME280;62818;49.394;8.686;2022-11-15T04:27:57;99909.91;;;10.35;100.00
60099;BME280;62818;49.394;8.686;2022-11-15T04:29:00;99909.44;;;10.47;100.00
60099;BME280;62818;49.394;8.686;2022-11-15T04:30:22;99912.47;;;10.43;100.00
60099;BME280;62818;49.394;8.686;2022-11-15T04:31:22;99910.75;;;10.36;100.00
60099;BME280;62818;49.394;8.686;2022-11-15T04:32:25;99914.31;;;10.43;100.00
60099;BME280;62818;49.394;8.686;2022-11-15T04:33:25;99915.50;;;10.40;100.00
60099;BME280;62818;49.394;8.686;2022-11-15T04:34:26;99920.03;;;10.47;100.00
60099;BME280;62818;49.394;8.686;2022-11-15T04:35:26;99905.44;;;10.51;100.00
60099;BME280;62818;49.394;8.686;2022-11-15T04:36:27;99901.34;;;10.48;100.00
60099;BME280;62818;49.394;8.686;2022-11-15T04:37:46;99914.84;;;10.38;100.00
60099;BME280;62818;49.394;8.686;2022-11-15T04:38:49;99912.31;;;10.30;100.00
60099;BME280;62818;49.394;8.686;2022-11-15T04:39:49;99916.59;;;10.31;100.00
60099;BME280;62818;49.394;8.686;2022-11-15T04:40:57;99915.06;;;10.37;100.00
60099;BME280;62818;49.394;8.686;2022-11-15T04:41:59;99912.75;;;10.49;100.00
60099;BME280;62818;49.394;8.686;2022-11-15T04:43:00;99915.78;;;10.46;100.00
60099;BME280;62818;49.394;8.686;2022-11-15T04:44:03;99918.59;;;10.44;100.00
60099;BME280;62818;49.394;8.686;2022-11-15T04:45:08;99914.19;;;10.51;100.00
60099;BME280;62818;49.394;8.686;2022-11-15T04:46:09;99916.28;;;10.56;100.00
60099;BME280;62818;49.394;8.686;2022-11-15T04:47:12;99913.06;;;10.60;99.65
60099;BME280;62818;49.394;8.686;2022-11-15T04:48:16;99916.19;;;10.49;100.00
60099;BME280;62818;49.394;8.686;2022-11-15T04:49:18;99910.75;;;10.51;100.00
60099;BME280;62818;49.394;8.686;2022-11-15T04:50:19;99911.63;;;10.58;100.00
60099;BME280;62818;49.394;8.686;2022-11-15T04:51:20;99918.84;;;10.64;100.00
60099;BME280;62818;49.394;8.686;2022-11-15T04:52:20;99913.38;;;10.51;100.00
60099;BME280;62818;49.394;8.686;2022-11-15T04:53:21;99911.72;;;10.50;100.00
60099;BME280;62818;49.394;8.686;2022-11-15T04:54:21;99913.63;;;10.56;100.00
60099;BME280;62818;49.394;8.686;2022-11-15T04:55:22;99906.25;;;10.51;100.00
60099;BME280;62818;49.394;8.686;2022-11-15T04:56:22;99913.19;;;10.52;100.00
60099;BME280;62818;49.394;8.686;2022-11-15T04:57:23;99906.63;;;10.48;100.00
60099;BME280;62818;49.394;8.686;2022-11-15T04:58:25;99906.72;;;10.55;100.00
60099;BME280;62818;49.394;8.686;2022-11-15T04:59:31;99903.22;;;10.54;100.00
60099;BME280;62818;49.394;8.686;2022-11-15T05:00:32;99899.00;;;10.60;100.00
60099;BME280;62818;49.394;8.686;2022-11-15T05:01:32;99903.28;;;10.61;100.00
60099;BME280;62818;49.394;8.686;2022-11-15T05:02:37;99895.97;;;10.63;100.00
60099;BME280;62818;49.394;8.686;2022-11-15T05:03:57;99894.28;;;10.55;100.00
60099;BME280;62818;49.394;8.686;2022-11-15T05:05:16;99896.47;;;10.52;100.00
60099;BME280;62818;49.394;8.686;2022-11-15T05:06:16;99890.34;;;10.51;100.00
60099;BME280;62818;49.394;8.686;2022-11-15T05:07:22;99892.69;;;10.61;100.00
60099;BME280;62818;49.394;8.686;2022-11-15T05:08:25;99893.59;;;10.68;100.00
60099;BME280;62818;49.394;8.686;2022-11-15T05:09:28;99892.34;;;10.64;100.00
60099;BME280;62818;49.394;8.686;2022-11-15T05:10:28;99894.97;;;10.64;100.00
60099;BME280;62818;49.394;8.686;2022-11-15T05:11:29;99893.88;;;10.73;100.00
60099;BME280;62818;49.394;8.686;2022-11-15T05:12:29;99893.97;;;10.65;100.00
60099;BME280;62818;49.394;8.686;2022-11-15T05:13:32;99886.00;;;10.65;100.00
60099;BME280;62818;49.394;8.686;2022-11-15T05:14:33;99884.25;;;10.72;100.00
60099;BME280;62818;49.394;8.686;2022-11-15T05:15:40;99882.44;;;10.72;100.00
60099;BME280;62818;49.394;8.686;2022-11-15T05:16:41;99882.47;;;10.58;100.00
60099;BME280;62818;49.394;8.686;2022-11-15T05:17:41;99882.47;;;10.58;100.00
60099;BME280;62818;49.394;8.686;2022-11-15T05:18:44;99883.91;;;10.60;100.00
60099;BME280;62818;49.394;8.686;2022-11-15T05:19:45;99888.03;;;10.63;100.00
60099;BME280;62818;49.394;8.686;2022-11-15T05:20:50;99878.13;;;10.71;100.00
60099;BME280;62818;49.394;8.686;2022-11-15T05:21:51;99880.97;;;10.70;100.00
60099;BME280;62818;49.394;8.686;2022-11-15T05:22:58;99880.97;;;10.49;100.00
60099;BME280;62818;49.394;8.686;2022-11-15T05:23:59;99870.53;;;10.47;100.00
60099;BME280;62818;49.394;8.686;2022-11-15T05:25:05;99880.84;;;10.57;100.00
60099;BME280;62818;49.394;8.686;2022-11-15T05:26:09;99874.78;;;10.63;100.00
60099;BME280;62818;49.394;8.686;2022-11-15T05:27:10;99877.63;;;10.61;100.00
60099;BME280;62818;49.394;8.686;2022-11-15T05:28:11;99880.00;;;10.56;100.00
60099;BME280;62818;49.394;8.686;2022-11-15T05:29:11;99884.31;;;10.57;100.00
60099;BME280;62818;49.394;8.686;2022-11-15T05:30:12;99882.84;;;10.55;100.00
60099;BME280;62818;49.394;8.686;2022-11-15T05:31:17;99882.47;;;10.58;100.00
60099;BME280;62818;49.394;8.686;2022-11-15T05:32:20;99881.81;;;10.56;100.00
60099;BME280;62818;49.394;8.686;2022-11-15T05:33:23;99876.66;;;10.48;100.00
60099;BME280;62818;49.394;8.686;2022-11-15T05:34:24;99881.28;;;10.60;100.00
60099;BME280;62818;49.394;8.686;2022-11-15T05:35:38;99884.13;;;10.59;100.00
60099;BME280;62818;49.394;8.686;2022-11-15T05:36:44;99877.13;;;10.36;100.00
60099;BME280;62818;49.394;8.686;2022-11-15T05:37:48;99879.78;;;10.36;100.00
60099;BME280;62818;49.394;8.686;2022-11-15T05:38:53;99881.25;;;10.39;100.00
60099;BME280;62818;49.394;8.686;2022-11-15T05:39:58;99886.00;;;10.43;100.00
60099;BME280;62818;49.394;8.686;2022-11-15T05:41:02;99877.41;;;10.41;100.00
60099;BME280;62818;49.394;8.686;2022-11-15T05:42:09;99885.22;;;10.50;100.00
60099;BME280;62818;49.394;8.686;2022-11-15T05:43:14;99875.66;;;10.49;100.00
60099;BME280;62818;49.394;8.686;2022-11-15T05:44:22;99879.66;;;10.44;100.00
60099;BME280;62818;49.394;8.686;2022-11-15T05:45:26;99875.75;;;10.40;100.00
60099;BME280;62818;49.394;8.686;2022-11-15T05:46:27;99870.44;;;10.40;100.00
60099;BME280;62818;49.394;8.686;2022-11-15T05:47:29;99878.31;;;10.49;100.00
60099;BME280;62818;49.394;8.686;2022-11-15T05:48:37;99879.94;;;10.50;100.00
60099;BME280;62818;49.394;8.686;2022-11-15T05:49:47;99887.63;;;10.44;100.00
60099;BME280;62818;49.394;8.686;2022-11-15T05:50:55;99885.19;;;10.28;100.00
60099;BME280;62818;49.394;8.686;2022-11-15T05:51:59;99879.31;;;10.69;100.00
60099;BME280;62818;49.394;8.686;2022-11-15T05:53:02;99887.53;;;10.74;99.18
60099;BME280;62818;49.394;8.686;2022-11-15T05:54:05;99877.34;;;10.56;100.00
60099;BME280;62818;49.394;8.686;2022-11-15T05:55:09;99889.28;;;10.67;99.89
60099;BME280;62818;49.394;8.686;2022-11-15T05:56:10;99876.31;;;10.72;100.00
60099;BME280;62818;49.394;8.686;2022-11-15T05:57:12;99884.25;;;10.72;98.73
60099;BME280;62818;49.394;8.686;2022-11-15T05:58:15;99881.59;;;10.72;98.76
60099;BME280;62818;49.394;8.686;2022-11-15T05:59:16;99883.06;;;10.74;99.38
60099;BME280;62818;49.394;8.686;2022-11-15T06:00:18;99892.34;;;10.64;100.00
60099;BME280;62818;49.394;8.686;2022-11-15T06:01:21;99882.84;;;10.55;100.00
60099;BME280;62818;49.394;8.686;2022-11-15T06:02:22;99883.34;;;10.65;99.45
60099;BME280;62818;49.394;8.686;2022-11-15T06:03:25;99882.59;;;10.71;98.86
60099;BME280;62818;49.394;8.686;2022-11-15T06:04:26;99887.91;;;10.71;99.29
60099;BME280;62818;49.394;8.686;2022-11-15T06:05:26;99891.22;;;10.73;98.74
60099;BME280;62818;49.394;8.686;2022-11-15T06:06:28;99897.13;;;10.75;99.13
60099;BME280;62818;49.394;8.686;2022-11-15T06:07:29;99892.41;;;10.70;99.96
60099;BME280;62818;49.394;8.686;2022-11-15T06:08:30;99888.28;;;10.68;100.00
60099;BME280;62818;49.394;8.686;2022-11-15T06:09:30;99889.69;;;10.64;100.00
60099;BME280;62818;49.394;8.686;2022-11-15T06:10:33;99893.97;;;10.65;100.00
60099;BME280;62818;49.394;8.686;2022-11-15T06:11:34;99890.75;;;10.69;100.00
60099;BME280;62818;49.394;8.686;2022-11-15T06:12:36;99886.72;;;10.73;100.00